createdAt,value
2024-05-09T00:00:21.000Z,0.0
2024-05-09T00:01:21.000Z,0.0
2024-05-09T00:02:21.000Z,0.0
2024-05-09T00:03:22.000Z,0.0
2024-05-09T00:04:22.000Z,0.0
2024-05-09T00:05:22.000Z,0.0
2024-05-09T00:06:23.000Z,0.0
2024-05-09T00:07:23.000Z,0.0
2024-05-09T00:08:23.000Z,0.0
2024-05-09T00:09:23.000Z,0.0
2024-05-09T00:10:24.000Z,0.0
2024-05-09T00:11:24.000Z,0.0
2024-05-09T00:12:24.000Z,0.0
2024-05-09T00:13:25.000Z,0.0
2024-05-09T00:14:25.000Z,0.0
2024-05-09T00:15:25.000Z,0.0
2024-05-09T00:16:26.000Z,0.0
2024-05-09T00:17:26.000Z,0.0
2024-05-09T00:18:26.000Z,0.0
2024-05-09T00:19:26.000Z,0.0
2024-05-09T00:20:27.000Z,0.0
2024-05-09T00:21:27.000Z,0.0
2024-05-09T00:22:27.000Z,0.0
2024-05-09T00:23:28.000Z,0.0
2024-05-09T00:24:28.000Z,0.0
2024-05-09T00:25:28.000Z,0.0
2024-05-09T00:26:29.000Z,0.0
2024-05-09T00:27:29.000Z,0.0
2024-05-09T00:28:29.000Z,0.0
2024-05-09T00:29:30.000Z,0.0
2024-05-09T00:30:30.000Z,0.0
2024-05-09T00:31:30.000Z,0.0
2024-05-09T00:32:30.000Z,0.0
2024-05-09T00:33:31.000Z,0.0
2024-05-09T00:34:31.000Z,0.0
2024-05-09T00:35:31.000Z,0.0
2024-05-09T00:36:32.000Z,0.0
2024-05-09T00:37:32.000Z,0.0
2024-05-09T00:38:32.000Z,0.0
2024-05-09T00:39:33.000Z,0.0
2024-05-09T00:40:33.000Z,0.0
2024-05-09T00:41:33.000Z,0.0
2024-05-09T00:42:34.000Z,0.0
2024-05-09T00:43:34.000Z,0.0
2024-05-09T00:44:34.000Z,0.0
2024-05-09T00:45:34.000Z,0.0
2024-05-09T00:46:35.000Z,0.0
2024-05-09T00:47:35.000Z,0.0
2024-05-09T00:48:35.000Z,0.0
2024-05-09T00:49:36.000Z,0.0
2024-05-09T00:50:36.000Z,0.0
2024-05-09T00:51:36.000Z,0.0
2024-05-09T00:52:37.000Z,0.0
2024-05-09T00:53:37.000Z,0.0
2024-05-09T00:54:37.000Z,0.0
2024-05-09T00:55:38.000Z,0.0
2024-05-09T00:56:38.000Z,0.0
2024-05-09T00:57:38.000Z,0.0
2024-05-09T00:58:38.000Z,0.0
2024-05-09T00:59:39.000Z,0.0
2024-05-09T01:00:39.000Z,0.0
2024-05-09T01:01:39.000Z,0.0
2024-05-09T01:02:40.000Z,0.0
2024-05-09T01:03:40.000Z,0.0
2024-05-09T01:04:40.000Z,0.0
2024-05-09T01:05:40.000Z,0.0
2024-05-09T01:06:41.000Z,0.0
2024-05-09T01:07:41.000Z,0.0
2024-05-09T01:08:41.000Z,0.0
2024-05-09T01:09:41.000Z,0.0
2024-05-09T01:10:42.000Z,0.0
2024-05-09T01:11:42.000Z,0.0
2024-05-09T01:12:42.000Z,0.0
2024-05-09T01:13:43.000Z,0.0
2024-05-09T01:14:43.000Z,0.0
2024-05-09T01:15:43.000Z,0.0
2024-05-09T01:16:43.000Z,0.5663999999999999
2024-05-09T01:17:44.000Z,1.2272
2024-05-09T01:18:44.000Z,1.416
2024-05-09T01:19:44.000Z,1.1327999999999998
2024-05-09T01:20:45.000Z,0.0472
2024-05-09T01:21:45.000Z,0.0
2024-05-09T01:22:45.000Z,0.0472
2024-05-09T01:23:46.000Z,0.0
2024-05-09T01:24:46.000Z,0.0
2024-05-09T01:25:46.000Z,0.0
2024-05-09T01:26:47.000Z,0.0
2024-05-09T01:27:47.000Z,0.0
2024-05-09T01:28:47.000Z,0.0
2024-05-09T01:29:48.000Z,0.0
2024-05-09T01:30:48.000Z,0.0
2024-05-09T01:31:48.000Z,0.0
2024-05-09T01:32:49.000Z,0.5663999999999999
2024-05-09T01:33:49.000Z,0.0
2024-05-09T01:34:49.000Z,0.0
2024-05-09T01:35:50.000Z,0.3776
2024-05-09T01:36:50.000Z,0.0944
2024-05-09T01:37:50.000Z,0.0
2024-05-09T01:38:51.000Z,0.0
2024-05-09T01:39:51.000Z,0.0
2024-05-09T01:40:51.000Z,0.0
2024-05-09T01:41:51.000Z,0.0
2024-05-09T01:42:52.000Z,0.0
2024-05-09T01:43:52.000Z,0.0
2024-05-09T01:44:52.000Z,0.0
2024-05-09T01:45:53.000Z,0.0
2024-05-09T01:46:53.000Z,0.0
2024-05-09T01:47:53.000Z,0.0
2024-05-09T01:48:54.000Z,0.0
2024-05-09T01:49:54.000Z,0.0
2024-05-09T01:50:54.000Z,0.0
2024-05-09T01:51:55.000Z,0.0
2024-05-09T01:52:55.000Z,0.0
2024-05-09T01:53:55.000Z,0.0
2024-05-09T01:54:56.000Z,0.0
2024-05-09T01:55:56.000Z,0.0
2024-05-09T01:56:56.000Z,0.0
2024-05-09T01:57:56.000Z,0.0
2024-05-09T01:58:57.000Z,0.0
2024-05-09T01:59:57.000Z,0.0
2024-05-09T02:00:57.000Z,0.0
2024-05-09T02:01:58.000Z,0.0
2024-05-09T02:02:58.000Z,0.0
2024-05-09T02:03:58.000Z,0.0
2024-05-09T02:04:58.000Z,0.0
2024-05-09T02:05:59.000Z,0.0
2024-05-09T02:06:59.000Z,0.0
2024-05-09T02:07:59.000Z,0.0
2024-05-09T02:09:00.000Z,0.0
2024-05-09T02:10:00.000Z,0.0
2024-05-09T02:11:00.000Z,0.0
2024-05-09T02:12:01.000Z,0.0
2024-05-09T02:13:01.000Z,0.0
2024-05-09T02:14:01.000Z,0.0
2024-05-09T02:15:02.000Z,0.0
2024-05-09T02:16:02.000Z,0.0
2024-05-09T02:17:02.000Z,0.0
2024-05-09T02:18:03.000Z,0.0
2024-05-09T02:19:03.000Z,0.0
2024-05-09T02:20:03.000Z,0.0
2024-05-09T02:21:04.000Z,0.0
2024-05-09T02:22:04.000Z,0.0
2024-05-09T02:23:04.000Z,0.9439999999999998
2024-05-09T02:24:04.000Z,0.9439999999999998
2024-05-09T02:25:05.000Z,0.23599999999999996
2024-05-09T02:26:05.000Z,0.4719999999999999
2024-05-09T02:27:05.000Z,0.0
2024-05-09T02:28:05.000Z,0.0
2024-05-09T02:29:06.000Z,0.0
2024-05-09T02:30:06.000Z,0.0
2024-05-09T02:31:07.000Z,0.0
2024-05-09T02:32:07.000Z,0.8967999999999998
2024-05-09T02:33:07.000Z,0.0
2024-05-09T02:34:07.000Z,0.0
2024-05-09T02:35:08.000Z,0.0
2024-05-09T02:36:08.000Z,0.0
2024-05-09T02:37:08.000Z,0.0
2024-05-09T02:38:09.000Z,0.0
2024-05-09T02:39:09.000Z,0.0
2024-05-09T02:40:09.000Z,0.0
2024-05-09T02:41:10.000Z,0.0
2024-05-09T02:42:10.000Z,0.0
2024-05-09T02:43:10.000Z,0.0
2024-05-09T02:44:11.000Z,0.0
2024-05-09T02:45:11.000Z,0.0
2024-05-09T02:46:11.000Z,0.0
2024-05-09T02:47:12.000Z,0.0
2024-05-09T02:48:12.000Z,0.0
2024-05-09T02:49:12.000Z,0.0
2024-05-09T02:50:13.000Z,0.3776
2024-05-09T02:51:13.000Z,2.2184
2024-05-09T02:52:13.000Z,2.9736
2024-05-09T02:53:13.000Z,2.9736
2024-05-09T02:54:14.000Z,0.33039999999999997
2024-05-09T02:55:14.000Z,0.0
2024-05-09T02:56:14.000Z,0.0
2024-05-09T02:57:15.000Z,0.0
2024-05-09T02:58:15.000Z,0.0
2024-05-09T02:59:15.000Z,0.0
2024-05-09T03:00:16.000Z,0.0
2024-05-09T03:01:16.000Z,0.0
2024-05-09T03:02:16.000Z,0.0
2024-05-09T03:03:16.000Z,0.0
2024-05-09T03:04:17.000Z,0.0
2024-05-09T03:05:17.000Z,0.0
2024-05-09T03:06:17.000Z,0.0
2024-05-09T03:07:18.000Z,0.14159999999999998
2024-05-09T03:08:18.000Z,1.4631999999999998
2024-05-09T03:09:18.000Z,1.18
2024-05-09T03:10:19.000Z,1.3215999999999999
2024-05-09T03:11:19.000Z,0.0944
2024-05-09T03:12:19.000Z,0.0
2024-05-09T03:13:19.000Z,0.0944
2024-05-09T03:14:20.000Z,0.42479999999999996
2024-05-09T03:15:20.000Z,0.1888
2024-05-09T03:16:20.000Z,0.0
2024-05-09T03:17:21.000Z,0.0
2024-05-09T03:18:21.000Z,0.0
2024-05-09T03:19:21.000Z,0.0
2024-05-09T03:20:22.000Z,0.0
2024-05-09T03:21:22.000Z,0.0
2024-05-09T03:22:22.000Z,0.0
2024-05-09T03:23:22.000Z,0.0
2024-05-09T03:24:23.000Z,0.0
2024-05-09T03:25:23.000Z,0.0
2024-05-09T03:26:23.000Z,0.0
2024-05-09T03:27:24.000Z,0.0
2024-05-09T03:28:24.000Z,0.0
2024-05-09T03:29:24.000Z,0.0
2024-05-09T03:30:24.000Z,0.0
2024-05-09T03:31:25.000Z,0.0
2024-05-09T03:32:25.000Z,0.0
2024-05-09T03:33:25.000Z,0.0
2024-05-09T03:34:26.000Z,0.0
2024-05-09T03:35:26.000Z,0.0
2024-05-09T03:36:26.000Z,0.0
2024-05-09T03:37:27.000Z,0.0
2024-05-09T03:38:27.000Z,0.0
2024-05-09T03:39:27.000Z,0.0
2024-05-09T03:40:28.000Z,0.0
2024-05-09T03:41:28.000Z,0.0
2024-05-09T03:42:28.000Z,0.0
2024-05-09T03:43:28.000Z,0.0
2024-05-09T03:44:29.000Z,0.0
2024-05-09T03:45:29.000Z,0.14159999999999998
2024-05-09T03:46:29.000Z,1.5576
2024-05-09T03:47:30.000Z,0.6607999999999999
2024-05-09T03:48:30.000Z,0.3776
2024-05-09T03:49:30.000Z,0.0
2024-05-09T03:50:31.000Z,0.0
2024-05-09T03:51:31.000Z,0.0
2024-05-09T03:52:31.000Z,0.0
2024-05-09T03:53:32.000Z,0.0
2024-05-09T03:54:32.000Z,0.0
2024-05-09T03:55:32.000Z,0.0
2024-05-09T03:56:33.000Z,0.0
2024-05-09T03:57:33.000Z,0.0
2024-05-09T03:58:33.000Z,0.4719999999999999
2024-05-09T03:59:33.000Z,1.1327999999999998
2024-05-09T04:00:34.000Z,1.3687999999999998
2024-05-09T04:01:34.000Z,0.28319999999999995
2024-05-09T04:02:34.000Z,1.6047999999999998
2024-05-09T04:03:34.000Z,1.416
2024-05-09T04:04:35.000Z,2.2655999999999996
2024-05-09T04:05:35.000Z,2.2655999999999996
2024-05-09T04:06:35.000Z,2.4072
2024-05-09T04:07:36.000Z,1.6047999999999998
2024-05-09T04:08:36.000Z,0.9911999999999999
2024-05-09T04:09:36.000Z,0.8023999999999999
2024-05-09T04:10:37.000Z,0.0
2024-05-09T04:11:37.000Z,0.1888
2024-05-09T04:12:37.000Z,0.0472
2024-05-09T04:13:37.000Z,1.6520000000000001
2024-05-09T04:14:38.000Z,1.6047999999999998
2024-05-09T04:15:38.000Z,2.5015999999999994
2024-05-09T04:16:38.000Z,0.5663999999999999
2024-05-09T04:17:39.000Z,0.4719999999999999
2024-05-09T04:18:39.000Z,0.0
2024-05-09T04:19:39.000Z,0.5191999999999999
2024-05-09T04:20:39.000Z,1.0383999999999998
2024-05-09T04:21:40.000Z,0.9911999999999999
2024-05-09T04:22:40.000Z,3.7759999999999994
2024-05-09T04:23:40.000Z,3.9647999999999994
2024-05-09T04:24:40.000Z,0.8495999999999999
2024-05-09T04:25:41.000Z,3.1624
2024-05-09T04:26:41.000Z,1.8879999999999997
2024-05-09T04:27:41.000Z,3.2095999999999996
2024-05-09T04:28:42.000Z,3.4455999999999993
2024-05-09T04:29:42.000Z,0.0
2024-05-09T04:30:42.000Z,6.702399999999999
2024-05-09T04:31:42.000Z,5.852799999999999
2024-05-09T04:32:43.000Z,7.3632
2024-05-09T04:33:43.000Z,6.796799999999999
2024-05-09T04:34:43.000Z,3.8703999999999996
2024-05-09T04:35:44.000Z,0.42479999999999996
2024-05-09T04:36:44.000Z,0.0
2024-05-09T04:37:44.000Z,0.0472
2024-05-09T04:38:45.000Z,3.2095999999999996
2024-05-09T04:39:45.000Z,3.9647999999999994
2024-05-09T04:40:45.000Z,7.6464
2024-05-09T04:41:45.000Z,6.9384
2024-05-09T04:42:46.000Z,4.578399999999999
2024-05-09T04:43:46.000Z,2.9736
2024-05-09T04:44:47.000Z,0.3776
2024-05-09T04:45:47.000Z,0.6136
2024-05-09T04:46:47.000Z,0.0
2024-05-09T04:47:47.000Z,0.0472
2024-05-09T04:48:48.000Z,2.2655999999999996
2024-05-09T04:49:48.000Z,2.7375999999999996
2024-05-09T04:50:48.000Z,0.0
2024-05-09T04:51:49.000Z,2.1712
2024-05-09T04:52:49.000Z,3.2567999999999997
2024-05-09T04:53:49.000Z,2.6431999999999998
2024-05-09T04:54:50.000Z,0.6607999999999999
2024-05-09T04:55:50.000Z,0.0
2024-05-09T04:56:50.000Z,0.9911999999999999
2024-05-09T04:57:51.000Z,3.0208
2024-05-09T04:58:51.000Z,3.8232
2024-05-09T04:59:51.000Z,2.0767999999999995
2024-05-09T05:00:51.000Z,4.1064
2024-05-09T05:01:52.000Z,5.6168
2024-05-09T05:02:52.000Z,3.1152
2024-05-09T05:03:52.000Z,0.0
2024-05-09T05:04:53.000Z,0.0472
2024-05-09T05:05:53.000Z,1.3687999999999998
2024-05-09T05:06:53.000Z,1.6520000000000001
2024-05-09T05:07:54.000Z,0.14159999999999998
2024-05-09T05:08:54.000Z,0.0
2024-05-09T05:09:54.000Z,0.0
2024-05-09T05:10:54.000Z,1.7935999999999996
2024-05-09T05:11:55.000Z,3.7287999999999992
2024-05-09T05:12:55.000Z,3.9175999999999997
2024-05-09T05:13:55.000Z,3.9175999999999997
2024-05-09T05:14:56.000Z,4.3424
2024-05-09T05:15:56.000Z,0.4719999999999999
2024-05-09T05:16:56.000Z,3.0679999999999996
2024-05-09T05:17:56.000Z,3.1152
2024-05-09T05:18:57.000Z,0.8023999999999999
2024-05-09T05:19:57.000Z,0.3776
2024-05-09T05:20:57.000Z,3.2567999999999997
2024-05-09T05:21:58.000Z,0.0944
2024-05-09T05:22:58.000Z,0.42479999999999996
2024-05-09T05:23:58.000Z,4.012
2024-05-09T05:24:59.000Z,2.0767999999999995
2024-05-09T05:25:59.000Z,2.5488
2024-05-09T05:26:59.000Z,2.6431999999999998
2024-05-09T05:28:00.000Z,0.0472
2024-05-09T05:29:00.000Z,3.4928
2024-05-09T05:30:00.000Z,0.7552
2024-05-09T05:31:01.000Z,1.18
2024-05-09T05:32:01.000Z,0.0472
2024-05-09T05:33:01.000Z,0.23599999999999996
2024-05-09T05:34:02.000Z,2.6431999999999998
2024-05-09T05:35:02.000Z,2.6903999999999995
2024-05-09T05:36:02.000Z,0.9439999999999998
2024-05-09T05:37:02.000Z,0.0472
2024-05-09T05:38:03.000Z,1.6991999999999998
2024-05-09T05:39:03.000Z,1.8879999999999997
2024-05-09T05:40:03.000Z,0.9439999999999998
2024-05-09T05:41:04.000Z,0.14159999999999998
2024-05-09T05:42:04.000Z,1.8879999999999997
2024-05-09T05:43:04.000Z,0.0472
2024-05-09T05:44:05.000Z,1.3215999999999999
2024-05-09T05:45:05.000Z,2.6431999999999998
2024-05-09T05:46:05.000Z,0.8023999999999999
2024-05-09T05:47:06.000Z,1.4631999999999998
2024-05-09T05:48:06.000Z,1.8408
2024-05-09T05:49:06.000Z,2.2184
2024-05-09T05:50:07.000Z,0.0
2024-05-09T05:51:07.000Z,0.0472
2024-05-09T05:52:07.000Z,0.14159999999999998
2024-05-09T05:53:07.000Z,0.0
2024-05-09T05:54:08.000Z,0.0
2024-05-09T05:55:08.000Z,0.0
2024-05-09T05:56:08.000Z,0.0
2024-05-09T05:57:09.000Z,0.42479999999999996
2024-05-09T05:58:09.000Z,3.6344
2024-05-09T05:59:09.000Z,4.1064
2024-05-09T06:00:09.000Z,0.6607999999999999
2024-05-09T06:01:10.000Z,2.0767999999999995
2024-05-09T06:02:10.000Z,1.3215999999999999
2024-05-09T06:03:10.000Z,4.3424
2024-05-09T06:04:11.000Z,3.6344
2024-05-09T06:05:11.000Z,3.5871999999999993
2024-05-09T06:06:11.000Z,2.0296
2024-05-09T06:07:12.000Z,2.4544
2024-05-09T06:08:12.000Z,4.2951999999999995
2024-05-09T06:09:12.000Z,4.9088
2024-05-09T06:10:12.000Z,0.8023999999999999
2024-05-09T06:11:13.000Z,1.3215999999999999
2024-05-09T06:12:13.000Z,5.144799999999999
2024-05-09T06:13:13.000Z,6.135999999999999
2024-05-09T06:14:14.000Z,3.3040000000000003
2024-05-09T06:15:14.000Z,4.8144
2024-05-09T06:16:14.000Z,5.0504
2024-05-09T06:17:15.000Z,3.7287999999999992
2024-05-09T06:18:15.000Z,5.9472
2024-05-09T06:19:15.000Z,6.1831999999999985
2024-05-09T06:20:16.000Z,4.4368
2024-05-09T06:21:16.000Z,3.0208
2024-05-09T06:22:16.000Z,0.14159999999999998
2024-05-09T06:23:16.000Z,1.4631999999999998
2024-05-09T06:24:17.000Z,0.0472
2024-05-09T06:25:17.000Z,0.0
2024-05-09T06:26:17.000Z,1.6991999999999998
2024-05-09T06:27:18.000Z,3.1152
2024-05-09T06:28:18.000Z,0.0
2024-05-09T06:29:18.000Z,2.9263999999999997
2024-05-09T06:30:19.000Z,3.9175999999999997
2024-05-09T06:31:19.000Z,3.54
2024-05-09T06:32:19.000Z,4.4368
2024-05-09T06:33:20.000Z,5.7112
2024-05-09T06:34:20.000Z,3.9647999999999994
2024-05-09T06:35:20.000Z,0.0
2024-05-09T06:36:21.000Z,4.6255999999999995
2024-05-09T06:37:21.000Z,4.2008
2024-05-09T06:38:21.000Z,1.5104
2024-05-09T06:39:22.000Z,3.2095999999999996
2024-05-09T06:40:22.000Z,0.9439999999999998
2024-05-09T06:41:22.000Z,0.0
2024-05-09T06:42:23.000Z,0.28319999999999995
2024-05-09T06:43:23.000Z,0.42479999999999996
2024-05-09T06:44:23.000Z,2.36
2024-05-09T06:45:24.000Z,1.3687999999999998
2024-05-09T06:46:24.000Z,0.0472
2024-05-09T06:47:24.000Z,3.0208
2024-05-09T06:48:25.000Z,2.5015999999999994
2024-05-09T06:49:25.000Z,0.8023999999999999
2024-05-09T06:50:25.000Z,0.0472
2024-05-09T06:51:25.000Z,2.0296
2024-05-09T06:52:26.000Z,4.3896
2024-05-09T06:53:26.000Z,1.18
2024-05-09T06:54:26.000Z,3.7287999999999992
2024-05-09T06:55:27.000Z,1.6047999999999998
2024-05-09T06:56:27.000Z,6.749599999999999
2024-05-09T06:57:27.000Z,3.0679999999999996
2024-05-09T06:58:27.000Z,4.8144
2024-05-09T06:59:28.000Z,5.003199999999999
2024-05-09T07:00:28.000Z,5.2863999999999995
2024-05-09T07:01:28.000Z,5.003199999999999
2024-05-09T07:02:29.000Z,3.6816
2024-05-09T07:03:29.000Z,5.9472
2024-05-09T07:04:29.000Z,5.475199999999999
2024-05-09T07:05:30.000Z,5.475199999999999
2024-05-09T07:06:30.000Z,3.54
2024-05-09T07:07:30.000Z,2.1712
2024-05-09T07:08:31.000Z,5.522399999999999
2024-05-09T07:09:31.000Z,6.1831999999999985
2024-05-09T07:10:31.000Z,4.9559999999999995
2024-05-09T07:11:31.000Z,2.6903999999999995
2024-05-09T07:12:32.000Z,2.7847999999999997
2024-05-09T07:13:32.000Z,2.6903999999999995
2024-05-09T07:14:32.000Z,1.0383999999999998
2024-05-09T07:15:33.000Z,2.8792
2024-05-09T07:16:33.000Z,2.36
2024-05-09T07:17:33.000Z,1.1327999999999998
2024-05-09T07:18:33.000Z,1.6520000000000001
2024-05-09T07:19:34.000Z,2.5015999999999994
2024-05-09T07:20:34.000Z,0.0944
2024-05-09T07:21:34.000Z,0.0
2024-05-09T07:22:35.000Z,2.7375999999999996
2024-05-09T07:23:35.000Z,0.0944
2024-05-09T07:24:35.000Z,0.33039999999999997
2024-05-09T07:25:35.000Z,0.0
2024-05-09T07:26:36.000Z,0.23599999999999996
2024-05-09T07:27:36.000Z,1.3215999999999999
2024-05-09T07:28:36.000Z,5.2392
2024-05-09T07:29:37.000Z,0.6136
2024-05-09T07:30:37.000Z,3.8703999999999996
2024-05-09T07:31:37.000Z,0.14159999999999998
2024-05-09T07:32:37.000Z,1.3687999999999998
2024-05-09T07:33:38.000Z,3.1624
2024-05-09T07:34:38.000Z,0.0
2024-05-09T07:35:38.000Z,0.0
2024-05-09T07:36:39.000Z,0.0
2024-05-09T07:37:39.000Z,0.9911999999999999
2024-05-09T07:38:39.000Z,0.5191999999999999
2024-05-09T07:39:40.000Z,3.1152
2024-05-09T07:40:40.000Z,0.9439999999999998
2024-05-09T07:41:40.000Z,2.2655999999999996
2024-05-09T07:41:40.000Z,2.2655999999999996
2024-05-09T07:42:41.000Z,3.0679999999999996
2024-05-09T07:42:41.000Z,3.0679999999999996
2024-05-09T07:43:41.000Z,0.6607999999999999
2024-05-09T07:43:41.000Z,0.6607999999999999
2024-05-09T07:44:41.000Z,0.1888
2024-05-09T07:44:41.000Z,0.1888
2024-05-09T07:45:41.000Z,0.0
2024-05-09T07:45:41.000Z,0.0
2024-05-09T07:46:42.000Z,0.0
2024-05-09T07:46:42.000Z,0.0
2024-05-09T07:47:42.000Z,0.0472
2024-05-09T07:47:42.000Z,0.0472
2024-05-09T07:48:42.000Z,0.4719999999999999
2024-05-09T07:48:42.000Z,0.4719999999999999
2024-05-09T07:49:43.000Z,0.4719999999999999
2024-05-09T07:49:43.000Z,0.4719999999999999
2024-05-09T07:50:43.000Z,1.0383999999999998
2024-05-09T07:50:43.000Z,1.0383999999999998
2024-05-09T07:51:43.000Z,0.5663999999999999
2024-05-09T07:52:44.000Z,0.28319999999999995
2024-05-09T07:53:44.000Z,0.0472
2024-05-09T07:54:44.000Z,0.14159999999999998
2024-05-09T07:55:45.000Z,1.4631999999999998
2024-05-09T07:56:45.000Z,1.416
2024-05-09T07:57:46.000Z,0.6607999999999999
2024-05-09T07:58:46.000Z,0.0
2024-05-09T07:59:47.000Z,1.7464
2024-05-09T08:00:47.000Z,0.0
2024-05-09T08:01:47.000Z,0.0472
2024-05-09T08:02:48.000Z,0.3776
2024-05-09T08:03:48.000Z,1.8879999999999997
2024-05-09T08:04:48.000Z,2.0767999999999995
2024-05-09T08:05:49.000Z,1.0856
2024-05-09T08:06:49.000Z,2.5488
2024-05-09T08:07:49.000Z,0.1888
2024-05-09T08:08:50.000Z,0.23599999999999996
2024-05-09T08:09:50.000Z,1.0383999999999998
2024-05-09T08:10:50.000Z,2.6903999999999995
2024-05-09T08:11:51.000Z,2.2184
2024-05-09T08:12:51.000Z,0.0472
2024-05-09T08:13:51.000Z,0.0
2024-05-09T08:14:51.000Z,1.0856
2024-05-09T08:15:52.000Z,0.5191999999999999
2024-05-09T08:16:52.000Z,0.0
2024-05-09T08:17:52.000Z,1.3687999999999998
2024-05-09T08:18:53.000Z,3.4928
2024-05-09T08:19:53.000Z,2.0767999999999995
2024-05-09T08:20:53.000Z,0.0
2024-05-09T08:21:53.000Z,0.8495999999999999
2024-05-09T08:22:54.000Z,0.8495999999999999
2024-05-09T08:23:54.000Z,0.708
2024-05-09T08:24:54.000Z,0.0472
2024-05-09T08:25:55.000Z,0.0472
2024-05-09T08:26:55.000Z,0.0472
2024-05-09T08:27:55.000Z,1.1327999999999998
2024-05-09T08:28:55.000Z,1.8408
2024-05-09T08:29:56.000Z,0.708
2024-05-09T08:30:56.000Z,0.6607999999999999
2024-05-09T08:31:56.000Z,5.380799999999999
2024-05-09T08:32:57.000Z,2.0296
2024-05-09T08:33:57.000Z,1.7464
2024-05-09T08:34:57.000Z,0.0
2024-05-09T08:35:57.000Z,0.42479999999999996
2024-05-09T08:36:58.000Z,0.5663999999999999
2024-05-09T08:37:58.000Z,0.0
2024-05-09T08:38:58.000Z,0.0944
2024-05-09T08:39:59.000Z,1.2272
2024-05-09T08:40:59.000Z,0.23599999999999996
2024-05-09T08:41:59.000Z,2.2655999999999996
2024-05-09T08:43:00.000Z,0.28319999999999995
2024-05-09T08:44:00.000Z,1.9351999999999998
2024-05-09T08:45:00.000Z,0.9439999999999998
2024-05-09T08:46:01.000Z,2.5015999999999994
2024-05-09T08:47:01.000Z,0.0944
2024-05-09T08:48:02.000Z,0.0
2024-05-09T08:49:02.000Z,1.5576
2024-05-09T08:50:02.000Z,3.3983999999999996
2024-05-09T08:51:03.000Z,1.8408
2024-05-09T08:52:03.000Z,1.0856
2024-05-09T08:53:03.000Z,0.6607999999999999
2024-05-09T08:54:04.000Z,0.0472
2024-05-09T08:55:04.000Z,1.5576
2024-05-09T08:56:04.000Z,0.9439999999999998
2024-05-09T08:57:05.000Z,0.7552
2024-05-09T08:58:05.000Z,2.1239999999999997
2024-05-09T08:59:05.000Z,1.5104
2024-05-09T09:00:05.000Z,0.0
2024-05-09T09:01:06.000Z,1.416
2024-05-09T09:02:06.000Z,0.33039999999999997
2024-05-09T09:03:06.000Z,1.3687999999999998
2024-05-09T09:04:07.000Z,0.1888
2024-05-09T09:05:07.000Z,3.54
2024-05-09T09:06:07.000Z,2.832
2024-05-09T09:07:08.000Z,3.2567999999999997
2024-05-09T09:08:08.000Z,2.2184
2024-05-09T09:09:08.000Z,0.708
2024-05-09T09:10:08.000Z,0.0
2024-05-09T09:11:09.000Z,0.0472
2024-05-09T09:12:09.000Z,1.5104
2024-05-09T09:13:09.000Z,2.36
2024-05-09T09:14:10.000Z,2.0767999999999995
2024-05-09T09:15:10.000Z,0.6607999999999999
2024-05-09T09:16:10.000Z,1.18
2024-05-09T09:17:10.000Z,2.0767999999999995
2024-05-09T09:18:11.000Z,1.6520000000000001
2024-05-09T09:19:11.000Z,2.0296
2024-05-09T09:20:11.000Z,5.7112
2024-05-09T09:21:12.000Z,4.861599999999999
2024-05-09T09:22:12.000Z,3.7759999999999994
2024-05-09T09:23:12.000Z,4.012
2024-05-09T09:24:13.000Z,4.1064
2024-05-09T09:25:13.000Z,3.4455999999999993
2024-05-09T09:26:13.000Z,5.427999999999999
2024-05-09T09:27:13.000Z,0.5191999999999999
2024-05-09T09:28:14.000Z,0.6136
2024-05-09T09:29:14.000Z,1.5576
2024-05-09T09:30:14.000Z,2.0767999999999995
2024-05-09T09:31:14.000Z,2.36
2024-05-09T09:32:15.000Z,1.4631999999999998
2024-05-09T09:33:15.000Z,0.0
2024-05-09T09:34:15.000Z,0.0472
2024-05-09T09:35:16.000Z,0.0
2024-05-09T09:36:16.000Z,0.0472
2024-05-09T09:37:16.000Z,0.0
2024-05-09T09:38:17.000Z,0.23599999999999996
2024-05-09T09:39:17.000Z,0.3776
2024-05-09T09:40:17.000Z,0.0
2024-05-09T09:41:17.000Z,0.23599999999999996
2024-05-09T09:42:18.000Z,0.0
2024-05-09T09:43:18.000Z,0.8495999999999999
2024-05-09T09:44:18.000Z,1.7935999999999996
2024-05-09T09:45:19.000Z,2.0296
2024-05-09T09:46:19.000Z,0.14159999999999998
2024-05-09T09:47:19.000Z,1.7935999999999996
2024-05-09T09:48:20.000Z,1.416
2024-05-09T09:49:20.000Z,0.8495999999999999
2024-05-09T09:50:20.000Z,1.2744
2024-05-09T09:51:21.000Z,0.3776
2024-05-09T09:52:21.000Z,0.1888
2024-05-09T09:53:21.000Z,0.9911999999999999
2024-05-09T09:54:22.000Z,3.0208
2024-05-09T09:55:22.000Z,1.7464
2024-05-09T09:56:22.000Z,2.6903999999999995
2024-05-09T09:57:23.000Z,3.1624
2024-05-09T09:58:23.000Z,3.6344
2024-05-09T09:59:23.000Z,2.6903999999999995
2024-05-09T10:00:24.000Z,1.2744
2024-05-09T10:01:24.000Z,6.1831999999999985
2024-05-09T10:02:24.000Z,2.4072
2024-05-09T10:03:25.000Z,1.8408
2024-05-09T10:04:25.000Z,0.708
2024-05-09T10:05:25.000Z,0.4719999999999999
2024-05-09T10:06:26.000Z,2.6903999999999995
2024-05-09T10:07:26.000Z,3.9647999999999994
2024-05-09T10:08:26.000Z,0.42479999999999996
2024-05-09T10:09:26.000Z,0.9439999999999998
2024-05-09T10:10:27.000Z,3.1152
2024-05-09T10:11:27.000Z,1.8879999999999997
2024-05-09T10:12:27.000Z,0.8023999999999999
2024-05-09T10:13:28.000Z,1.0383999999999998
2024-05-09T10:14:28.000Z,1.0856
2024-05-09T10:15:28.000Z,1.7464
2024-05-09T10:16:29.000Z,3.1152
2024-05-09T10:17:29.000Z,3.0208
2024-05-09T10:18:29.000Z,2.0767999999999995
2024-05-09T10:19:29.000Z,1.9351999999999998
2024-05-09T10:20:30.000Z,0.708
2024-05-09T10:21:30.000Z,0.0
2024-05-09T10:22:30.000Z,2.36
2024-05-09T10:23:31.000Z,3.2567999999999997
2024-05-09T10:24:31.000Z,1.9823999999999997
2024-05-09T10:25:31.000Z,0.0
2024-05-09T10:26:32.000Z,0.33039999999999997
2024-05-09T10:27:32.000Z,0.33039999999999997
2024-05-09T10:28:32.000Z,0.1888
2024-05-09T10:29:32.000Z,0.0
2024-05-09T10:30:33.000Z,0.0472
2024-05-09T10:31:33.000Z,0.9439999999999998
2024-05-09T10:32:33.000Z,0.4719999999999999
2024-05-09T10:33:34.000Z,0.28319999999999995
2024-05-09T10:34:34.000Z,0.0944
2024-05-09T10:35:34.000Z,0.28319999999999995
2024-05-09T10:36:34.000Z,0.9439999999999998
2024-05-09T10:37:35.000Z,3.3511999999999995
2024-05-09T10:38:35.000Z,3.2567999999999997
2024-05-09T10:39:35.000Z,4.7672
2024-05-09T10:40:36.000Z,3.0208
2024-05-09T10:41:36.000Z,1.9351999999999998
2024-05-09T10:42:36.000Z,6.135999999999999
2024-05-09T10:43:36.000Z,1.5104
2024-05-09T10:44:37.000Z,2.9736
2024-05-09T10:45:37.000Z,4.0592
2024-05-09T10:46:37.000Z,2.36
2024-05-09T10:47:38.000Z,3.4928
2024-05-09T10:48:38.000Z,0.5191999999999999
2024-05-09T10:49:38.000Z,0.14159999999999998
2024-05-09T10:50:39.000Z,2.4072
2024-05-09T10:51:39.000Z,0.42479999999999996
2024-05-09T10:52:39.000Z,1.5104
2024-05-09T10:53:40.000Z,0.14159999999999998
2024-05-09T10:54:40.000Z,0.9439999999999998
2024-05-09T10:55:40.000Z,1.8408
2024-05-09T10:56:41.000Z,0.708
2024-05-09T10:57:41.000Z,2.1712
2024-05-09T10:58:41.000Z,1.6520000000000001
2024-05-09T10:59:42.000Z,3.3983999999999996
2024-05-09T11:00:42.000Z,1.9823999999999997
2024-05-09T11:01:42.000Z,4.2008
2024-05-09T11:02:43.000Z,1.7464
2024-05-09T11:03:43.000Z,1.18
2024-05-09T11:04:43.000Z,1.1327999999999998
2024-05-09T11:05:44.000Z,1.6047999999999998
2024-05-09T11:06:44.000Z,4.4368
2024-05-09T11:07:44.000Z,3.4928
2024-05-09T11:08:44.000Z,6.0416
2024-05-09T11:09:45.000Z,6.513599999999999
2024-05-09T11:10:45.000Z,4.9088
2024-05-09T11:11:45.000Z,6.371999999999999
2024-05-09T11:12:46.000Z,4.247999999999999
2024-05-09T11:13:46.000Z,6.513599999999999
2024-05-09T11:14:46.000Z,6.2304
2024-05-09T11:15:47.000Z,3.1624